sensor_id;sensor_type;location;lat;lon;timestamp;temperature;humidity
46932;DHT22;32670;51.464;11.964;2022-09-30T00:01:00;24.10;45.80
46932;DHT22;32670;51.464;11.964;2022-09-30T00:03:27;24.10;45.70
46932;DHT22;32670;51.464;11.964;2022-09-30T00:06:02;24.10;45.80
46932;DHT22;32670;51.464;11.964;2022-09-30T00:08:28;24.10;45.80
46932;DHT22;32670;51.464;11.964;2022-09-30T00:11:05;24.10;45.80
46932;DHT22;32670;51.464;11.964;2022-09-30T00:13:37;24.10;45.80
46932;DHT22;32670;51.464;11.964;2022-09-30T00:16:03;24.10;45.70
46932;DHT22;32670;51.464;11.964;2022-09-30T00:18:29;24.10;45.80
46932;DHT22;32670;51.464;11.964;2022-09-30T00:20:55;24.00;45.70
46932;DHT22;32670;51.464;11.964;2022-09-30T00:23:22;24.00;45.70
46932;DHT22;32670;51.464;11.964;2022-09-30T00:25:49;24.10;45.80
46932;DHT22;32670;51.464;11.964;2022-09-30T00:28:15;24.10;45.80
46932;DHT22;32670;51.464;11.964;2022-09-30T00:30:41;24.00;45.70
46932;DHT22;32670;51.464;11.964;2022-09-30T00:33:08;24.10;45.70
46932;DHT22;32670;51.464;11.964;2022-09-30T00:35:34;24.10;45.70
46932;DHT22;32670;51.464;11.964;2022-09-30T00:38:00;24.00;45.70
46932;DHT22;32670;51.464;11.964;2022-09-30T00:40:26;24.10;45.80
46932;DHT22;32670;51.464;11.964;2022-09-30T00:42:52;24.00;45.70
46932;DHT22;32670;51.464;11.964;2022-09-30T00:45:18;24.00;45.70
46932;DHT22;32670;51.464;11.964;2022-09-30T00:50:46;24.00;45.70
46932;DHT22;32670;51.464;11.964;2022-09-30T00:53:17;24.00;45.70
46932;DHT22;32670;51.464;11.964;2022-09-30T00:56:02;24.00;45.70
46932;DHT22;32670;51.464;11.964;2022-09-30T01:00:54;24.00;45.70
46932;DHT22;32670;51.464;11.964;2022-09-30T01:03:21;24.00;45.70
46932;DHT22;32670;51.464;11.964;2022-09-30T01:05:49;24.00;45.70
46932;DHT22;32670;51.464;11.964;2022-09-30T01:08:16;24.00;45.70
46932;DHT22;32670;51.464;11.964;2022-09-30T01:10:43;24.00;45.80
46932;DHT22;32670;51.464;11.964;2022-09-30T01:13:09;24.00;45.70
46932;DHT22;32670;51.464;11.964;2022-09-30T01:15:59;24.00;45.70
46932;DHT22;32670;51.464;11.964;2022-09-30T01:18:52;24.00;45.80
46932;DHT22;32670;51.464;11.964;2022-09-30T01:21:39;24.00;45.80
46932;DHT22;32670;51.464;11.964;2022-09-30T01:26:58;24.00;45.80
46932;DHT22;32670;51.464;11.964;2022-09-30T01:35:24;24.00;45.80
46932;DHT22;32670;51.464;11.964;2022-09-30T01:40:44;23.90;45.70
46932;DHT22;32670;51.464;11.964;2022-09-30T01:43:23;24.00;45.80
46932;DHT22;32670;51.464;11.964;2022-09-30T01:46:44;24.00;45.70
46932;DHT22;32670;51.464;11.964;2022-09-30T01:49:06;23.90;45.70
46932;DHT22;32670;51.464;11.964;2022-09-30T01:51:55;24.00;45.70
46932;DHT22;32670;51.464;11.964;2022-09-30T01:54:41;23.90;45.70
46932;DHT22;32670;51.464;11.964;2022-09-30T01:57:16;24.00;45.80
46932;DHT22;32670;51.464;11.964;2022-09-30T02:00:02;23.90;45.70
46932;DHT22;32670;51.464;11.964;2022-09-30T02:02:39;23.90;45.70
46932;DHT22;32670;51.464;11.964;2022-09-30T02:05:14;23.90;45.70
46932;DHT22;32670;51.464;11.964;2022-09-30T02:08:03;23.90;45.70
46932;DHT22;32670;51.464;11.964;2022-09-30T02:11:19;23.90;45.70
46932;DHT22;32670;51.464;11.964;2022-09-30T02:13:40;24.00;45.80
46932;DHT22;32670;51.464;11.964;2022-09-30T02:16:13;23.90;45.70
46932;DHT22;32670;51.464;11.964;2022-09-30T02:18:49;24.00;45.80
46932;DHT22;32670;51.464;11.964;2022-09-30T02:21:20;23.90;45.70
46932;DHT22;32670;51.464;11.964;2022-09-30T02:23:52;23.90;45.70
46932;DHT22;32670;51.464;11.964;2022-09-30T02:26:23;23.90;45.70
46932;DHT22;32670;51.464;11.964;2022-09-30T02:28:53;23.90;45.70
46932;DHT22;32670;51.464;11.964;2022-09-30T02:31:22;23.90;45.70
46932;DHT22;32670;51.464;11.964;2022-09-30T02:34:25;23.90;45.70
46932;DHT22;32670;51.464;11.964;2022-09-30T02:36:52;23.90;45.70
46932;DHT22;32670;51.464;11.964;2022-09-30T02:39:27;23.90;45.70
46932;DHT22;32670;51.464;11.964;2022-09-30T02:41:58;23.90;45.70
46932;DHT22;32670;51.464;11.964;2022-09-30T02:44:27;23.90;45.70
46932;DHT22;32670;51.464;11.964;2022-09-30T02:47:20;23.90;45.70
46932;DHT22;32670;51.464;11.964;2022-09-30T02:49:54;23.90;45.80
46932;DHT22;32670;51.464;11.964;2022-09-30T02:58:08;23.90;45.70
46932;DHT22;32670;51.464;11.964;2022-09-30T03:00:36;23.90;45.70
46932;DHT22;32670;51.464;11.964;2022-09-30T03:03:10;23.90;45.70
46932;DHT22;32670;51.464;11.964;2022-09-30T03:05:36;23.90;45.70
46932;DHT22;32670;51.464;11.964;2022-09-30T03:08:02;23.90;45.80
46932;DHT22;32670;51.464;11.964;2022-09-30T03:10:28;23.90;46.20
46932;DHT22;32670;51.464;11.964;2022-09-30T03:16:03;23.90;45.70
46932;DHT22;32670;51.464;11.964;2022-09-30T03:21:42;23.90;45.70
46932;DHT22;32670;51.464;11.964;2022-09-30T03:24:29;23.90;45.70
46932;DHT22;32670;51.464;11.964;2022-09-30T03:29:49;23.90;45.70
46932;DHT22;32670;51.464;11.964;2022-09-30T03:43:34;23.90;45.70
46932;DHT22;32670;51.464;11.964;2022-09-30T03:48:37;23.90;45.70
46932;DHT22;32670;51.464;11.964;2022-09-30T03:51:04;23.80;45.70
46932;DHT22;32670;51.464;11.964;2022-09-30T03:53:37;23.80;45.70
46932;DHT22;32670;51.464;11.964;2022-09-30T03:56:03;23.90;45.70
46932;DHT22;32670;51.464;11.964;2022-09-30T03:58:28;23.90;45.70
46932;DHT22;32670;51.464;11.964;2022-09-30T04:00:54;23.80;45.70
46932;DHT22;32670;51.464;11.964;2022-09-30T04:03:21;23.80;45.70
46932;DHT22;32670;51.464;11.964;2022-09-30T04:05:48;23.90;45.70
46932;DHT22;32670;51.464;11.964;2022-09-30T04:08:14;23.80;45.70
46932;DHT22;32670;51.464;11.964;2022-09-30T04:10:40;23.80;45.70
46932;DHT22;32670;51.464;11.964;2022-09-30T04:13:06;23.80;45.60
46932;DHT22;32670;51.464;11.964;2022-09-30T04:15:32;23.80;45.70
46932;DHT22;32670;51.464;11.964;2022-09-30T04:17:58;23.80;45.70
46932;DHT22;32670;51.464;11.964;2022-09-30T04:20:24;23.80;45.70
46932;DHT22;32670;51.464;11.964;2022-09-30T04:22:49;23.80;45.70
46932;DHT22;32670;51.464;11.964;2022-09-30T04:25:15;23.80;45.70
46932;DHT22;32670;51.464;11.964;2022-09-30T04:27:40;23.80;46.20
46932;DHT22;32670;51.464;11.964;2022-09-30T04:30:06;23.80;45.60
46932;DHT22;32670;51.464;11.964;2022-09-30T04:32:32;23.80;45.80
46932;DHT22;32670;51.464;11.964;2022-09-30T04:34:57;23.80;45.70
46932;DHT22;32670;51.464;11.964;2022-09-30T04:37:23;23.80;45.60
46932;DHT22;32670;51.464;11.964;2022-09-30T04:39:48;23.80;45.60
46932;DHT22;32670;51.464;11.964;2022-09-30T04:42:14;23.80;45.70
46932;DHT22;32670;51.464;11.964;2022-09-30T04:44:41;23.80;45.70
46932;DHT22;32670;51.464;11.964;2022-09-30T04:47:06;23.80;45.70
46932;DHT22;32670;51.464;11.964;2022-09-30T04:49:31;23.80;45.70
46932;DHT22;32670;51.464;11.964;2022-09-30T04:51:57;23.80;45.60
46932;DHT22;32670;51.464;11.964;2022-09-30T04:54:22;23.80;45.70
46932;DHT22;32670;51.464;11.964;2022-09-30T04:56:49;23.80;45.60
46932;DHT22;32670;51.464;11.964;2022-09-30T04:59:15;23.80;45.70
46932;DHT22;32670;51.464;11.964;2022-09-30T05:01:40;23.70;46.20
46932;DHT22;32670;51.464;11.964;2022-09-30T05:04:07;23.80;45.60
46932;DHT22;32670;51.464;11.964;2022-09-30T05:06:33;23.80;45.60
46932;DHT22;32670;51.464;11.964;2022-09-30T05:08:59;23.80;45.60
46932;DHT22;32670;51.464;11.964;2022-09-30T05:11:24;23.80;45.60
46932;DHT22;32670;51.464;11.964;2022-09-30T05:13:50;23.80;46.20
46932;DHT22;32670;51.464;11.964;2022-09-30T05:16:16;23.70;45.60
46932;DHT22;32670;51.464;11.964;2022-09-30T05:18:42;23.70;45.60
46932;DHT22;32670;51.464;11.964;2022-09-30T05:21:12;23.70;45.60
46932;DHT22;32670;51.464;11.964;2022-09-30T05:23:37;23.70;45.60
46932;DHT22;32670;51.464;11.964;2022-09-30T05:26:03;23.70;45.60
46932;DHT22;32670;51.464;11.964;2022-09-30T05:28:29;23.70;45.60
46932;DHT22;32670;51.464;11.964;2022-09-30T05:31:00;23.80;45.60
46932;DHT22;32670;51.464;11.964;2022-09-30T05:33:27;23.70;45.50
46932;DHT22;32670;51.464;11.964;2022-09-30T05:36:04;23.80;45.60
46932;DHT22;32670;51.464;11.964;2022-09-30T05:38:30;23.70;45.50
46932;DHT22;32670;51.464;11.964;2022-09-30T05:40:56;23.70;45.50
46932;DHT22;32670;51.464;11.964;2022-09-30T05:43:22;23.70;45.50
46932;DHT22;32670;51.464;11.964;2022-09-30T05:45:55;23.80;46.00
46932;DHT22;32670;51.464;11.964;2022-09-30T05:48:22;23.70;46.30
46932;DHT22;32670;51.464;11.964;2022-09-30T05:50:48;23.70;46.30
46932;DHT22;32670;51.464;11.964;2022-09-30T05:53:16;23.70;46.30
46932;DHT22;32670;51.464;11.964;2022-09-30T05:55:45;23.80;43.20
46932;DHT22;32670;51.464;11.964;2022-09-30T05:58:12;23.40;35.40
46932;DHT22;32670;51.464;11.964;2022-09-30T06:00:45;22.80;35.40
46932;DHT22;32670;51.464;11.964;2022-09-30T06:03:12;22.40;36.20
46932;DHT22;32670;51.464;11.964;2022-09-30T06:05:38;22.10;36.70
46932;DHT22;32670;51.464;11.964;2022-09-30T06:08:04;22.10;37.90
46932;DHT22;32670;51.464;11.964;2022-09-30T06:10:32;22.30;39.50
46932;DHT22;32670;51.464;11.964;2022-09-30T06:12:58;22.40;40.00
46932;DHT22;32670;51.464;11.964;2022-09-30T06:15:24;22.70;40.30
46932;DHT22;32670;51.464;11.964;2022-09-30T06:17:53;22.80;40.40
46932;DHT22;32670;51.464;11.964;2022-09-30T06:20:19;23.00;40.50
46932;DHT22;32670;51.464;11.964;2022-09-30T06:22:44;23.10;40.50
46932;DHT22;32670;51.464;11.964;2022-09-30T06:25:10;23.20;40.60
46932;DHT22;32670;51.464;11.964;2022-09-30T06:27:36;23.30;40.70
46932;DHT22;32670;51.464;11.964;2022-09-30T06:30:03;23.30;41.10
46932;DHT22;32670;51.464;11.964;2022-09-30T06:32:29;23.30;37.60
46932;DHT22;32670;51.464;11.964;2022-09-30T06:34:54;23.20;36.80
46932;DHT22;32670;51.464;11.964;2022-09-30T06:37:21;23.10;39.20
46932;DHT22;32670;51.464;11.964;2022-09-30T06:39:47;23.10;40.80
46932;DHT22;32670;51.464;11.964;2022-09-30T06:42:14;23.20;40.70
46932;DHT22;32670;51.464;11.964;2022-09-30T06:44:39;23.30;41.50
46932;DHT22;32670;51.464;11.964;2022-09-30T06:47:05;23.30;41.60
46932;DHT22;32670;51.464;11.964;2022-09-30T06:49:30;23.40;42.00
46932;DHT22;32670;51.464;11.964;2022-09-30T06:51:57;23.40;41.80
46932;DHT22;32670;51.464;11.964;2022-09-30T06:54:23;23.50;42.00
46932;DHT22;32670;51.464;11.964;2022-09-30T06:56:48;23.50;42.10
46932;DHT22;32670;51.464;11.964;2022-09-30T06:59:14;23.50;41.90
46932;DHT22;32670;51.464;11.964;2022-09-30T07:01:42;23.60;42.20
46932;DHT22;32670;51.464;11.964;2022-09-30T07:04:10;23.60;42.00
46932;DHT22;32670;51.464;11.964;2022-09-30T07:06:36;23.60;42.30
46932;DHT22;32670;51.464;11.964;2022-09-30T07:09:03;23.70;42.20
46932;DHT22;32670;51.464;11.964;2022-09-30T07:11:29;23.70;42.40
46932;DHT22;32670;51.464;11.964;2022-09-30T07:13:54;23.70;42.60
46932;DHT22;32670;51.464;11.964;2022-09-30T07:16:20;23.80;43.00
46932;DHT22;32670;51.464;11.964;2022-09-30T07:18:45;23.80;43.20
46932;DHT22;32670;51.464;11.964;2022-09-30T07:21:15;23.80;43.10
46932;DHT22;32670;51.464;11.964;2022-09-30T07:23:41;23.80;41.50
46932;DHT22;32670;51.464;11.964;2022-09-30T07:26:18;23.80;41.80
46932;DHT22;32670;51.464;11.964;2022-09-30T07:28:44;23.80;42.30
46932;DHT22;32670;51.464;11.964;2022-09-30T07:31:15;23.90;42.20
46932;DHT22;32670;51.464;11.964;2022-09-30T07:33:42;23.90;42.30
46932;DHT22;32670;51.464;11.964;2022-09-30T07:36:08;23.90;42.40
46932;DHT22;32670;51.464;11.964;2022-09-30T07:38:37;23.90;42.60
46932;DHT22;32670;51.464;11.964;2022-09-30T07:41:08;24.00;42.80
46932;DHT22;32670;51.464;11.964;2022-09-30T07:43:35;24.00;42.80
46932;DHT22;32670;51.464;11.964;2022-09-30T07:46:07;24.00;42.80
46932;DHT22;32670;51.464;11.964;2022-09-30T07:48:33;24.00;43.00
46932;DHT22;32670;51.464;11.964;2022-09-30T07:51:11;24.10;43.30
46932;DHT22;32670;51.464;11.964;2022-09-30T07:53:37;24.10;43.30
46932;DHT22;32670;51.464;11.964;2022-09-30T07:56:04;24.10;40.50
46932;DHT22;32670;51.464;11.964;2022-09-30T07:58:31;23.90;38.70
46932;DHT22;32670;51.464;11.964;2022-09-30T08:00:56;23.80;38.40
46932;DHT22;32670;51.464;11.964;2022-09-30T08:03:22;23.60;38.30
46932;DHT22;32670;51.464;11.964;2022-09-30T08:05:47;23.40;37.40
46932;DHT22;32670;51.464;11.964;2022-09-30T08:08:14;23.20;37.50
46932;DHT22;32670;51.464;11.964;2022-09-30T08:10:40;23.00;38.60
46932;DHT22;32670;51.464;11.964;2022-09-30T08:13:05;23.00;38.90
46932;DHT22;32670;51.464;11.964;2022-09-30T08:15:31;23.00;39.10
46932;DHT22;32670;51.464;11.964;2022-09-30T08:17:57;23.00;39.20
46932;DHT22;32670;51.464;11.964;2022-09-30T08:20:22;23.00;39.30
46932;DHT22;32670;51.464;11.964;2022-09-30T08:22:52;23.00;39.60
46932;DHT22;32670;51.464;11.964;2022-09-30T08:25:17;23.00;40.00
46932;DHT22;32670;51.464;11.964;2022-09-30T08:27:43;23.00;40.00
46932;DHT22;32670;51.464;11.964;2022-09-30T08:30:09;23.10;40.20
46932;DHT22;32670;51.464;11.964;2022-09-30T08:32:34;23.10;40.20
46932;DHT22;32670;51.464;11.964;2022-09-30T08:35:00;23.20;40.20
46932;DHT22;32670;51.464;11.964;2022-09-30T08:37:25;23.20;40.70
46932;DHT22;32670;51.464;11.964;2022-09-30T08:39:51;23.20;40.40
46932;DHT22;32670;51.464;11.964;2022-09-30T08:42:32;23.20;40.30
46932;DHT22;32670;51.464;11.964;2022-09-30T08:45:32;23.10;40.50
46932;DHT22;32670;51.464;11.964;2022-09-30T08:53:47;23.10;40.70
46932;DHT22;32670;51.464;11.964;2022-09-30T08:56:20;23.10;40.80
46932;DHT22;32670;51.464;11.964;2022-09-30T08:58:47;23.20;40.80
46932;DHT22;32670;51.464;11.964;2022-09-30T09:01:19;23.20;41.00
46932;DHT22;32670;51.464;11.964;2022-09-30T09:03:48;23.20;40.90
46932;DHT22;32670;51.464;11.964;2022-09-30T09:06:28;23.20;41.10
46932;DHT22;32670;51.464;11.964;2022-09-30T09:09:19;23.30;41.40
46932;DHT22;32670;51.464;11.964;2022-09-30T09:12:06;23.40;41.90
46932;DHT22;32670;51.464;11.964;2022-09-30T09:14:53;23.50;41.90
46932;DHT22;32670;51.464;11.964;2022-09-30T09:17:57;23.60;42.10
46932;DHT22;32670;51.464;11.964;2022-09-30T09:20:38;23.70;42.30
46932;DHT22;32670;51.464;11.964;2022-09-30T09:23:09;23.90;42.60
46932;DHT22;32670;51.464;11.964;2022-09-30T09:25:37;23.90;42.80
46932;DHT22;32670;51.464;11.964;2022-09-30T09:28:05;24.00;43.10
46932;DHT22;32670;51.464;11.964;2022-09-30T09:30:43;23.90;39.50
46932;DHT22;32670;51.464;11.964;2022-09-30T09:35:50;23.50;41.10
46932;DHT22;32670;51.464;11.964;2022-09-30T09:46:44;23.90;42.10
46932;DHT22;32670;51.464;11.964;2022-09-30T09:54:33;24.10;42.20
46932;DHT22;32670;51.464;11.964;2022-09-30T09:57:08;24.20;42.30
46932;DHT22;32670;51.464;11.964;2022-09-30T09:59:35;24.20;42.30
46932;DHT22;32670;51.464;11.964;2022-09-30T10:02:01;24.30;42.50
46932;DHT22;32670;51.464;11.964;2022-09-30T10:04:28;24.30;42.60
46932;DHT22;32670;51.464;11.964;2022-09-30T10:07:12;24.40;42.70
46932;DHT22;32670;51.464;11.964;2022-09-30T10:09:39;24.40;42.80
46932;DHT22;32670;51.464;11.964;2022-09-30T10:17:02;24.50;43.00
46932;DHT22;32670;51.464;11.964;2022-09-30T10:19:30;24.50;43.10
46932;DHT22;32670;51.464;11.964;2022-09-30T10:24:38;24.60;43.20
46932;DHT22;32670;51.464;11.964;2022-09-30T10:27:27;24.60;43.20
46932;DHT22;32670;51.464;11.964;2022-09-30T10:29:53;24.60;43.40
46932;DHT22;32670;51.464;11.964;2022-09-30T10:32:19;24.70;43.40
46932;DHT22;32670;51.464;11.964;2022-09-30T10:34:46;24.70;43.40
46932;DHT22;32670;51.464;11.964;2022-09-30T10:37:21;24.80;44.10
46932;DHT22;32670;51.464;11.964;2022-09-30T10:39:56;24.80;43.50
46932;DHT22;32670;51.464;11.964;2022-09-30T10:42:24;24.80;43.60
46932;DHT22;32670;51.464;11.964;2022-09-30T10:44:59;24.80;43.60
46932;DHT22;32670;51.464;11.964;2022-09-30T10:47:30;24.90;43.70
46932;DHT22;32670;51.464;11.964;2022-09-30T10:50:07;24.90;43.70
46932;DHT22;32670;51.464;11.964;2022-09-30T10:52:39;24.90;43.80
46932;DHT22;32670;51.464;11.964;2022-09-30T10:56:02;25.00;43.90
46932;DHT22;32670;51.464;11.964;2022-09-30T10:58:50;25.00;43.90
46932;DHT22;32670;51.464;11.964;2022-09-30T11:01:21;25.00;44.10
46932;DHT22;32670;51.464;11.964;2022-09-30T11:06:22;25.10;44.00
46932;DHT22;32670;51.464;11.964;2022-09-30T11:08:55;25.10;44.10
46932;DHT22;32670;51.464;11.964;2022-09-30T11:11:39;25.10;44.00
46932;DHT22;32670;51.464;11.964;2022-09-30T11:14:20;25.10;44.00
46932;DHT22;32670;51.464;11.964;2022-09-30T11:19:43;25.20;44.20
46932;DHT22;32670;51.464;11.964;2022-09-30T11:22:22;25.20;44.20
46932;DHT22;32670;51.464;11.964;2022-09-30T11:24:52;25.20;44.10
46932;DHT22;32670;51.464;11.964;2022-09-30T11:41:03;25.30;42.50
46932;DHT22;32670;51.464;11.964;2022-09-30T11:46:57;25.30;42.80
46932;DHT22;32670;51.464;11.964;2022-09-30T11:55:09;25.30;43.20
46932;DHT22;32670;51.464;11.964;2022-09-30T11:58:21;25.30;43.50
46932;DHT22;32670;51.464;11.964;2022-09-30T12:00:50;25.40;43.70
46932;DHT22;32670;51.464;11.964;2022-09-30T12:03:24;25.40;43.70
46932;DHT22;32670;51.464;11.964;2022-09-30T12:05:55;25.40;43.80
46932;DHT22;32670;51.464;11.964;2022-09-30T12:08:28;25.40;44.20
46932;DHT22;32670;51.464;11.964;2022-09-30T12:11:17;25.50;44.60
46932;DHT22;32670;51.464;11.964;2022-09-30T12:13:50;25.50;44.80
46932;DHT22;32670;51.464;11.964;2022-09-30T12:16:20;25.50;44.80
46932;DHT22;32670;51.464;11.964;2022-09-30T12:18:52;25.50;44.80
46932;DHT22;32670;51.464;11.964;2022-09-30T12:21:52;25.50;44.90
46932;DHT22;32670;51.464;11.964;2022-09-30T12:24:30;25.50;45.00
46932;DHT22;32670;51.464;11.964;2022-09-30T12:26:58;25.50;45.20
46932;DHT22;32670;51.464;11.964;2022-09-30T12:29:48;25.50;45.10
46932;DHT22;32670;51.464;11.964;2022-09-30T12:35:47;25.50;45.30
46932;DHT22;32670;51.464;11.964;2022-09-30T12:38:51;25.50;45.20
46932;DHT22;32670;51.464;11.964;2022-09-30T12:41:49;25.50;45.20
46932;DHT22;32670;51.464;11.964;2022-09-30T12:47:48;25.60;45.30
46932;DHT22;32670;51.464;11.964;2022-09-30T12:50:19;25.60;45.40
46932;DHT22;32670;51.464;11.964;2022-09-30T12:52:45;25.60;44.80
46932;DHT22;32670;51.464;11.964;2022-09-30T12:55:38;25.60;44.50
46932;DHT22;32670;51.464;11.964;2022-09-30T12:58:12;25.60;44.90
46932;DHT22;32670;51.464;11.964;2022-09-30T13:03:25;25.60;45.10
46932;DHT22;32670;51.464;11.964;2022-09-30T13:05:54;25.60;44.90
46932;DHT22;32670;51.464;11.964;2022-09-30T13:10:50;25.60;45.10
46932;DHT22;32670;51.464;11.964;2022-09-30T13:13:20;25.70;45.00
46932;DHT22;32670;51.464;11.964;2022-09-30T13:15:50;25.70;45.00
46932;DHT22;32670;51.464;11.964;2022-09-30T13:31:30;25.80;45.00
46932;DHT22;32670;51.464;11.964;2022-09-30T13:47:43;25.80;45.00
46932;DHT22;32670;51.464;11.964;2022-09-30T13:52:52;25.80;44.90
46932;DHT22;32670;51.464;11.964;2022-09-30T13:55:43;25.80;44.90
46932;DHT22;32670;51.464;11.964;2022-09-30T14:01:40;25.80;45.00
46932;DHT22;32670;51.464;11.964;2022-09-30T14:07:12;25.80;45.00
46932;DHT22;32670;51.464;11.964;2022-09-30T14:09:43;25.80;45.00
46932;DHT22;32670;51.464;11.964;2022-09-30T14:22:49;25.80;44.20
46932;DHT22;32670;51.464;11.964;2022-09-30T14:25:17;25.80;44.60
46932;DHT22;32670;51.464;11.964;2022-09-30T14:27:52;25.80;44.60
46932;DHT22;32670;51.464;11.964;2022-09-30T14:30:23;25.80;44.50
46932;DHT22;32670;51.464;11.964;2022-09-30T14:35:26;25.80;44.70
46932;DHT22;32670;51.464;11.964;2022-09-30T14:40:32;25.80;45.00
46932;DHT22;32670;51.464;11.964;2022-09-30T14:42:59;25.80;45.00
46932;DHT22;32670;51.464;11.964;2022-09-30T14:45:28;25.80;45.00
46932;DHT22;32670;51.464;11.964;2022-09-30T14:48:00;25.70;41.50
46932;DHT22;32670;51.464;11.964;2022-09-30T14:50:33;25.80;38.90
46932;DHT22;32670;51.464;11.964;2022-09-30T14:52:59;25.70;37.50
46932;DHT22;32670;51.464;11.964;2022-09-30T14:55:33;25.70;35.40
46932;DHT22;32670;51.464;11.964;2022-09-30T14:58:24;25.70;34.80
46932;DHT22;32670;51.464;11.964;2022-09-30T15:01:14;25.70;33.50
46932;DHT22;32670;51.464;11.964;2022-09-30T15:03:44;25.70;33.50
46932;DHT22;32670;51.464;11.964;2022-09-30T15:06:20;25.60;33.40
46932;DHT22;32670;51.464;11.964;2022-09-30T15:08:46;25.60;33.00
46932;DHT22;32670;51.464;11.964;2022-09-30T15:11:20;25.60;33.00
46932;DHT22;32670;51.464;11.964;2022-09-30T15:13:50;25.60;32.60
46932;DHT22;32670;51.464;11.964;2022-09-30T15:16:24;25.60;32.60
46932;DHT22;32670;51.464;11.964;2022-09-30T15:18:50;25.60;32.00
46932;DHT22;32670;51.464;11.964;2022-09-30T15:21:16;25.60;32.10
46932;DHT22;32670;51.464;11.964;2022-09-30T15:23:45;25.60;31.90
46932;DHT22;32670;51.464;11.964;2022-09-30T15:26:13;25.50;32.00
46932;DHT22;32670;51.464;11.964;2022-09-30T15:28:39;25.50;32.20
46932;DHT22;32670;51.464;11.964;2022-09-30T15:31:05;25.50;33.00
46932;DHT22;32670;51.464;11.964;2022-09-30T15:33:34;25.50;33.70
46932;DHT22;32670;51.464;11.964;2022-09-30T15:36:11;25.50;34.50
46932;DHT22;32670;51.464;11.964;2022-09-30T15:38:38;25.50;34.60
46932;DHT22;32670;51.464;11.964;2022-09-30T15:41:07;25.50;35.20
46932;DHT22;32670;51.464;11.964;2022-09-30T15:43:50;25.50;35.40
46932;DHT22;32670;51.464;11.964;2022-09-30T15:48:43;25.50;36.10
46932;DHT22;32670;51.464;11.964;2022-09-30T15:51:29;25.50;36.30
46932;DHT22;32670;51.464;11.964;2022-09-30T15:53:56;25.50;36.50
46932;DHT22;32670;51.464;11.964;2022-09-30T15:56:30;25.50;37.00
46932;DHT22;32670;51.464;11.964;2022-09-30T15:59:00;25.50;37.70
46932;DHT22;32670;51.464;11.964;2022-09-30T16:01:32;25.50;37.40
46932;DHT22;32670;51.464;11.964;2022-09-30T16:06:32;25.50;37.00
46932;DHT22;32670;51.464;11.964;2022-09-30T16:09:13;25.50;37.10
46932;DHT22;32670;51.464;11.964;2022-09-30T16:11:44;25.50;37.80
46932;DHT22;32670;51.464;11.964;2022-09-30T16:14:23;25.50;38.20
46932;DHT22;32670;51.464;11.964;2022-09-30T16:16:53;25.50;38.40
46932;DHT22;32670;51.464;11.964;2022-09-30T16:19:20;25.50;39.00
46932;DHT22;32670;51.464;11.964;2022-09-30T16:21:50;25.60;39.00
46932;DHT22;32670;51.464;11.964;2022-09-30T16:26:58;25.50;39.50
46932;DHT22;32670;51.464;11.964;2022-09-30T16:29:26;25.50;39.40
46932;DHT22;32670;51.464;11.964;2022-09-30T16:31:55;25.50;39.60
46932;DHT22;32670;51.464;11.964;2022-09-30T16:34:26;25.50;39.90
46932;DHT22;32670;51.464;11.964;2022-09-30T16:36:53;25.50;39.90
46932;DHT22;32670;51.464;11.964;2022-09-30T16:39:19;25.50;40.10
46932;DHT22;32670;51.464;11.964;2022-09-30T16:41:45;25.60;40.20
46932;DHT22;32670;51.464;11.964;2022-09-30T16:44:11;25.60;40.30
46932;DHT22;32670;51.464;11.964;2022-09-30T16:46:37;25.60;40.90
46932;DHT22;32670;51.464;11.964;2022-09-30T16:49:14;25.50;40.60
46932;DHT22;32670;51.464;11.964;2022-09-30T16:51:40;25.50;40.90
46932;DHT22;32670;51.464;11.964;2022-09-30T16:54:06;25.50;40.80
46932;DHT22;32670;51.464;11.964;2022-09-30T16:56:32;25.50;41.30
46932;DHT22;32670;51.464;11.964;2022-09-30T16:58:58;25.60;41.40
46932;DHT22;32670;51.464;11.964;2022-09-30T17:01:24;25.50;41.30
46932;DHT22;32670;51.464;11.964;2022-09-30T17:03:51;25.50;41.40
46932;DHT22;32670;51.464;11.964;2022-09-30T17:06:19;25.50;41.40
46932;DHT22;32670;51.464;11.964;2022-09-30T17:08:48;25.60;41.70
46932;DHT22;32670;51.464;11.964;2022-09-30T17:11:13;25.50;41.50
46932;DHT22;32670;51.464;11.964;2022-09-30T17:13:39;25.50;41.80
46932;DHT22;32670;51.464;11.964;2022-09-30T17:16:05;25.60;41.80
46932;DHT22;32670;51.464;11.964;2022-09-30T17:18:30;25.50;42.00
46932;DHT22;32670;51.464;11.964;2022-09-30T17:20:56;25.50;42.10
46932;DHT22;32670;51.464;11.964;2022-09-30T17:23:23;25.50;42.10
46932;DHT22;32670;51.464;11.964;2022-09-30T17:25:49;25.50;42.30
46932;DHT22;32670;51.464;11.964;2022-09-30T17:28:16;25.50;42.30
46932;DHT22;32670;51.464;11.964;2022-09-30T17:30:43;25.50;42.40
46932;DHT22;32670;51.464;11.964;2022-09-30T17:33:11;25.50;42.10
46932;DHT22;32670;51.464;11.964;2022-09-30T17:35:37;25.50;42.10
46932;DHT22;32670;51.464;11.964;2022-09-30T17:38:07;25.50;42.40
46932;DHT22;32670;51.464;11.964;2022-09-30T17:40:33;25.50;42.80
46932;DHT22;32670;51.464;11.964;2022-09-30T17:43:17;25.50;42.80
46932;DHT22;32670;51.464;11.964;2022-09-30T17:45:44;25.50;42.90
46932;DHT22;32670;51.464;11.964;2022-09-30T17:48:11;25.50;43.00
46932;DHT22;32670;51.464;11.964;2022-09-30T17:50:43;25.50;43.00
46932;DHT22;32670;51.464;11.964;2022-09-30T17:53:09;25.50;43.00
46932;DHT22;32670;51.464;11.964;2022-09-30T17:55:38;25.50;43.00
46932;DHT22;32670;51.464;11.964;2022-09-30T17:58:05;25.50;42.90
46932;DHT22;32670;51.464;11.964;2022-09-30T18:00:30;25.50;43.10
46932;DHT22;32670;51.464;11.964;2022-09-30T18:02:56;25.50;43.30
46932;DHT22;32670;51.464;11.964;2022-09-30T18:05:22;25.50;43.30
46932;DHT22;32670;51.464;11.964;2022-09-30T18:07:50;25.50;43.30
46932;DHT22;32670;51.464;11.964;2022-09-30T18:10:16;25.50;43.50
46932;DHT22;32670;51.464;11.964;2022-09-30T18:12:41;25.50;43.40
46932;DHT22;32670;51.464;11.964;2022-09-30T18:15:07;25.50;43.40
46932;DHT22;32670;51.464;11.964;2022-09-30T18:17:34;25.50;43.40
46932;DHT22;32670;51.464;11.964;2022-09-30T18:19:59;25.50;43.40
46932;DHT22;32670;51.464;11.964;2022-09-30T18:22:25;25.50;44.00
46932;DHT22;32670;51.464;11.964;2022-09-30T18:24:50;25.50;43.50
46932;DHT22;32670;51.464;11.964;2022-09-30T18:27:35;25.50;43.70
46932;DHT22;32670;51.464;11.964;2022-09-30T18:30:02;25.50;43.70
46932;DHT22;32670;51.464;11.964;2022-09-30T18:32:28;25.50;43.30